Time;durP1;ratioP1;P1;durP2;ratioP2;P2;SDS_P1;SDS_P2;PMS_P1;PMS_P2;Temp;Humidity;BMP_temperature;BMP_pressure;BME280_temperature;BME280_humidity;BME280_pressure;Samples;Min_cycle;Max_cycle;Signal;HPM_P1;HPM_P2
2022/09/08 00:01:26;;;;;;;33.20;14.90;;;;;;;13.91;47.51;98980.14;105934;1277;108754;-64
2022/09/08 00:03:55;;;;;;;32.80;15.90;;;;;;;13.88;47.51;98978.74;105953;1278;99356;-65
2022/09/08 00:06:23;;;;;;;39.60;16.70;;;;;;;13.86;47.51;98983.08;105986;1277;99300;-64
2022/09/08 00:08:55;;;;;;;33.60;16.60;;;;;;;13.83;47.60;98980.27;105995;1278;113795;-63
2022/09/08 00:11:28;;;;;;;35.10;16.10;;;;;;;13.80;47.63;98977.52;106029;1277;99448;-66
2022/09/08 00:13:59;;;;;;;32.50;15.50;;;;;;;13.77;47.65;98975.94;106024;1277;107419;-63
2022/09/08 00:16:27;;;;;;;32.10;15.80;;;;;;;13.75;47.76;98971.21;106017;1278;99216;-64
2022/09/08 00:18:56;;;;;;;32.10;15.20;;;;;;;13.72;47.86;98966.08;106049;1278;96654;-65
2022/09/08 00:21:28;;;;;;;34.30;16.50;;;;;;;13.69;47.88;98964.33;105957;1277;113451;-65
2022/09/08 00:23:56;;;;;;;32.60;15.90;;;;;;;13.68;47.93;98966.97;105969;1278;99254;-62
2022/09/08 00:26:24;;;;;;;31.30;16.10;;;;;;;13.65;48.04;98967.01;105939;1278;108354;-66
2022/09/08 00:28:52;;;;;;;37.40;17.00;;;;;;;13.63;48.00;98963.86;105982;1278;96542;-68
2022/09/08 00:31:20;;;;;;;31.30;16.30;;;;;;;13.60;48.07;98970.65;105979;1277;99201;-66
2022/09/08 00:33:49;;;;;;;31.30;15.60;;;;;;;13.58;48.06;98971.57;106036;1277;113494;-67
2022/09/08 00:36:18;;;;;;;33.80;14.80;;;;;;;13.55;48.20;98966.48;106056;1277;99277;-66
2022/09/08 00:38:52;;;;;;;30.50;14.90;;;;;;;13.52;48.35;98964.57;106049;1277;107801;-65
2022/09/08 00:41:23;;;;;;;32.00;14.50;;;;;;;13.49;48.29;98966.62;105994;1278;99307;-65
2022/09/08 00:44:02;;;;;;;33.00;14.30;;;;;;;13.45;48.31;98968.20;106063;1278;97710;-65
2022/09/08 00:46:38;;;;;;;29.00;14.10;;;;;;;13.42;48.38;98967.95;106019;1278;113936;-65
2022/09/08 00:49:08;;;;;;;31.10;14.60;;;;;;;13.39;48.46;98971.73;106048;1278;96830;-65
2022/09/08 00:51:42;;;;;;;29.90;13.90;;;;;;;13.36;48.55;98972.68;106001;1278;108369;-65
2022/09/08 00:54:13;;;;;;;30.60;14.40;;;;;;;13.33;48.58;98971.69;106000;1278;99099;-64
2022/09/08 00:56:44;;;;;;;28.10;13.50;;;;;;;13.30;48.57;98966.80;105947;1277;99237;-65
2022/09/08 00:59:17;;;;;;;32.70;14.60;;;;;;;13.28;48.71;98967.02;105952;1278;112394;-64
2022/09/08 01:01:47;;;;;;;34.00;15.20;;;;;;;13.24;48.80;98969.39;105936;1277;99946;-65
2022/09/08 01:04:14;;;;;;;31.20;14.90;;;;;;;13.21;48.81;98964.85;106049;1278;107854;-66
2022/09/08 01:13:01;;;;;;;35.70;14.60;;;;;;;13.13;49.03;98959.90;105865;1277;113358;-64
2022/09/08 01:15:29;;;;;;;30.40;14.80;;;;;;;13.11;49.14;98962.02;105892;1278;96800;-66
2022/09/08 01:17:58;;;;;;;32.00;14.60;;;;;;;13.08;49.10;98966.63;105859;1278;109423;-67
2022/09/08 01:20:59;;;;;;;33.60;15.70;;;;;;;13.07;49.06;98966.63;105893;1278;99332;-66
2022/09/08 01:24:01;;;;;;;31.80;15.70;;;;;;;13.03;49.18;98960.67;106006;1277;99209;-65
2022/09/08 01:26:41;;;;;;;31.90;15.00;;;;;;;13.00;49.33;98959.36;105914;1277;112821;-66
2022/09/08 01:29:10;;;;;;;32.60;15.20;;;;;;;12.98;49.27;98957.05;105947;1277;99246;-65
2022/09/08 01:31:42;;;;;;;34.20;15.90;;;;;;;12.95;49.30;98953.73;105955;1278;108326;-65
2022/09/08 01:34:11;;;;;;;37.70;15.80;;;;;;;12.93;49.29;98952.98;105895;1277;99228;-66
2022/09/08 01:36:39;;;;;;;35.80;15.60;;;;;;;12.90;49.32;98952.15;105941;1277;99223;-65
2022/09/08 01:39:07;;;;;;;33.70;16.00;;;;;;;12.88;49.38;98952.55;105786;1277;113342;-66
2022/09/08 01:41:35;;;;;;;34.10;16.30;;;;;;;12.85;49.42;98951.36;105970;1277;99395;-64
2022/09/08 01:44:03;;;;;;;33.00;15.30;;;;;;;12.82;49.55;98950.20;105977;1277;108423;-66
2022/09/08 01:46:32;;;;;;;33.00;15.90;;;;;;;12.80;49.66;98949.95;105985;1277;99268;-64
2022/09/08 01:49:01;;;;;;;35.00;16.50;;;;;;;12.78;49.67;98948.50;105996;1277;96675;-65
2022/09/08 01:51:29;;;;;;;37.00;17.80;;;;;;;12.77;49.80;98948.78;105959;1277;113379;-65
2022/09/08 01:53:57;;;;;;;36.30;17.20;;;;;;;12.77;49.85;98947.57;105980;1277;99176;-66
2022/09/08 01:56:26;;;;;;;36.40;17.60;;;;;;;12.76;49.76;98946.20;105901;1277;108417;-65
2022/09/08 01:58:54;;;;;;;31.30;16.50;;;;;;;12.75;49.88;98947.14;105945;1277;96666;-64
2022/09/08 02:01:22;;;;;;;37.70;16.50;;;;;;;12.76;49.94;98946.77;105848;1280;97679;-65
2022/09/08 02:03:50;;;;;;;36.10;17.00;;;;;;;12.75;50.04;98941.31;105870;1279;113393;-65
2022/09/08 02:06:19;;;;;;;36.90;17.40;;;;;;;12.75;50.14;98935.61;105839;1280;99320;-65
2022/09/08 02:08:51;;;;;;;39.00;18.70;;;;;;;12.75;50.12;98933.48;105876;1278;106550;-65
2022/09/08 02:11:19;;;;;;;35.40;17.40;;;;;;;12.75;50.29;98932.64;105932;1277;99339;-63
2022/09/08 02:13:49;;;;;;;39.00;17.70;;;;;;;12.75;50.29;98929.60;105894;1281;99243;-64
2022/09/08 02:16:17;;;;;;;34.30;18.00;;;;;;;12.74;50.45;98927.33;105915;1279;112498;-63
2022/09/08 02:18:46;;;;;;;36.90;19.90;;;;;;;12.75;50.46;98931.56;105980;1277;99199;-68
2022/09/08 02:21:17;;;;;;;41.70;18.70;;;;;;;12.75;50.54;98932.94;105902;1279;108191;-65
2022/09/08 02:23:48;;;;;;;33.20;17.50;;;;;;;12.75;50.55;98935.23;105948;1279;99333;-66
2022/09/08 02:26:26;;;;;;;38.10;17.50;;;;;;;12.76;50.58;98930.23;106030;1277;99329;-65
2022/09/08 02:28:55;;;;;;;34.80;17.70;;;;;;;12.76;50.75;98931.46;106015;1277;112890;-66
2022/09/08 02:31:26;;;;;;;35.20;18.00;;;;;;;12.76;50.75;98927.00;105964;1277;96683;-65
2022/09/08 02:33:55;;;;;;;39.90;18.90;;;;;;;12.76;50.78;98923.42;105926;1277;109301;-64
2022/09/08 02:36:24;;;;;;;41.70;18.40;;;;;;;12.76;50.76;98922.59;105925;1277;99285;-66
2022/09/08 02:38:54;;;;;;;39.30;18.10;;;;;;;12.76;50.74;98926.83;105892;1277;98384;-66
2022/09/08 02:41:25;;;;;;;37.40;17.90;;;;;;;12.76;50.78;98929.66;105898;1277;113426;-65
2022/09/08 02:43:55;;;;;;;38.00;18.00;;;;;;;12.75;50.74;98932.10;105908;1277;99356;-66
2022/09/08 02:46:24;;;;;;;35.40;17.70;;;;;;;12.73;50.91;98931.52;105908;1277;106036;-65
2022/09/08 02:48:53;;;;;;;35.90;18.60;;;;;;;12.73;51.02;98927.11;105909;1277;99283;-65
2022/09/08 02:51:22;;;;;;;43.50;18.10;;;;;;;12.71;50.94;98920.16;105949;1277;99227;-64
2022/09/08 02:53:56;;;;;;;40.20;18.40;;;;;;;12.70;50.95;98918.66;105999;1277;113108;-64
2022/09/08 02:56:25;;;;;;;34.40;17.80;;;;;;;12.69;51.12;98919.38;105973;1277;96533;-65
2022/09/08 02:58:54;;;;;;;34.60;16.60;;;;;;;12.69;51.18;98921.55;105996;1276;108383;-66
2022/09/08 03:01:22;;;;;;;35.50;17.50;;;;;;;12.68;51.18;98922.84;105987;1277;99246;-65
2022/09/08 03:03:51;;;;;;;37.80;18.60;;;;;;;12.67;51.14;98925.60;105962;1279;99272;-65
2022/09/08 03:06:20;;;;;;;37.30;18.80;;;;;;;12.66;51.15;98924.78;105988;1279;113653;-64
2022/09/08 03:08:49;;;;;;;37.30;18.20;;;;;;;12.64;51.10;98926.20;106035;1277;98663;-67
2022/09/08 03:11:17;;;;;;;33.20;17.00;;;;;;;12.62;51.29;98925.63;106027;1276;108328;-66
2022/09/08 03:13:45;;;;;;;35.80;17.20;;;;;;;12.61;51.22;98926.48;105953;1277;99287;-66
2022/09/08 03:16:13;;;;;;;35.90;16.70;;;;;;;12.58;51.29;98926.36;105991;1277;99224;-65
2022/09/08 03:18:41;;;;;;;41.30;17.60;;;;;;;12.57;51.34;98925.59;105965;1276;113173;-64
2022/09/08 03:21:15;;;;;;;35.30;16.90;;;;;;;12.54;51.39;98925.11;105928;1277;99331;-64
2022/09/08 03:23:43;;;;;;;37.70;18.00;;;;;;;12.50;51.42;98926.29;105949;1277;107763;-65
2022/09/08 03:26:17;;;;;;;35.20;17.70;;;;;;;12.46;51.36;98926.25;105934;1277;99363;-65
2022/09/08 03:28:52;;;;;;;40.30;19.00;;;;;;;12.43;51.50;98921.39;106040;1277;99349;-66
2022/09/08 03:31:22;;;;;;;37.00;18.70;;;;;;;12.40;51.62;98920.39;105982;1277;113015;-66
2022/09/08 03:33:50;;;;;;;36.90;19.00;;;;;;;12.38;51.58;98919.66;105987;1276;99174;-65
2022/09/08 03:36:19;;;;;;;36.60;17.50;;;;;;;12.35;51.58;98919.17;105976;1277;108401;-65
2022/09/08 03:38:49;;;;;;;36.40;17.40;;;;;;;12.31;51.62;98916.45;105947;1277;99327;-64
2022/09/08 03:41:18;;;;;;;36.70;17.20;;;;;;;12.30;51.79;98915.87;106152;1277;96638;-65
2022/09/08 03:43:50;;;;;;;39.50;18.10;;;;;;;12.28;51.75;98916.55;106027;1277;113558;-65
2022/09/08 03:46:19;;;;;;;36.20;17.80;;;;;;;12.26;51.85;98915.97;105973;1277;96618;-66
2022/09/08 03:48:47;;;;;;;35.70;17.90;;;;;;;12.25;51.76;98918.05;106004;1277;108414;-65
2022/09/08 03:51:25;;;;;;;35.60;17.70;;;;;;;12.23;51.89;98916.05;106070;1277;97941;-66
2022/09/08 03:56:51;;;;;;;37.80;19.00;;;;;;;12.19;51.99;98913.33;105503;1278;113472;-66
2022/09/08 03:59:19;;;;;;;37.10;18.80;;;;;;;12.18;52.01;98915.38;105917;1276;99030;-66
2022/09/08 04:01:47;;;;;;;40.10;19.10;;;;;;;12.17;51.99;98919.54;105940;1277;108233;-67
2022/09/08 04:04:16;;;;;;;36.30;17.50;;;;;;;12.16;52.10;98920.35;105960;1277;100426;-65
2022/09/08 04:06:44;;;;;;;41.50;18.90;;;;;;;12.15;52.17;98919.52;106012;1276;99292;-63
2022/09/08 04:09:12;;;;;;;35.50;17.50;;;;;;;12.14;52.10;98923.52;105959;1278;113330;-66
2022/09/08 04:11:40;;;;;;;38.80;18.50;;;;;;;12.14;52.14;98920.37;105894;1279;99240;-64
2022/09/08 04:14:09;;;;;;;37.30;17.50;;;;;;;12.13;52.21;98919.08;105919;1277;108687;-64
2022/09/08 04:16:37;;;;;;;37.20;16.60;;;;;;;12.12;52.26;98918.39;105973;1277;99243;-68
2022/09/08 04:19:04;;;;;;;34.60;16.70;;;;;;;12.12;52.35;98921.42;105948;1279;99246;-66
2022/09/08 04:21:33;;;;;;;36.20;17.40;;;;;;;12.11;52.29;98922.73;105919;1277;112714;-66
2022/09/08 04:24:02;;;;;;;39.90;18.10;;;;;;;12.11;52.37;98925.42;105871;1279;99265;-66
2022/09/08 04:26:30;;;;;;;36.50;17.60;;;;;;;12.10;52.39;98923.14;105963;1276;108252;-64
2022/09/08 04:28:59;;;;;;;36.90;16.70;;;;;;;12.11;52.54;98920.46;105994;1276;99217;-67
2022/09/08 04:31:28;;;;;;;35.80;16.20;;;;;;;12.11;52.44;98919.90;105923;1276;99202;-66
2022/09/08 04:33:57;;;;;;;31.30;15.70;;;;;;;12.11;52.46;98922.54;105942;1276;113442;-65
2022/09/08 04:36:27;;;;;;;34.60;15.80;;;;;;;12.11;52.57;98919.00;105989;1276;97746;-64
2022/09/08 04:38:58;;;;;;;34.40;16.00;;;;;;;12.10;52.48;98919.21;105972;1276;108407;-64
2022/09/08 04:41:30;;;;;;;36.90;16.70;;;;;;;12.10;52.58;98917.11;105994;1276;96525;-65
2022/09/08 04:44:01;;;;;;;32.60;16.00;;;;;;;12.11;52.55;98913.52;106013;1276;99240;-64
2022/09/08 04:46:32;;;;;;;34.00;15.60;;;;;;;12.11;52.61;98913.30;106030;1276;112979;-64
2022/09/08 04:49:01;;;;;;;33.40;16.80;;;;;;;12.12;52.73;98916.64;105998;1276;99299;-64
2022/09/08 04:51:30;;;;;;;35.60;15.50;;;;;;;12.13;52.67;98919.75;105876;1277;108188;-64
2022/09/08 04:54:00;;;;;;;37.10;16.50;;;;;;;12.15;52.83;98914.95;105947;1277;99317;-66
2022/09/08 04:56:29;;;;;;;39.90;17.90;;;;;;;12.17;52.83;98914.91;105923;1276;99334;-66
2022/09/08 04:59:00;;;;;;;32.90;16.10;;;;;;;12.20;52.86;98923.39;105886;1276;112489;-63
2022/09/08 05:01:34;;;;;;;37.20;16.80;;;;;;;12.24;52.90;98927.17;105884;1277;96873;-63
2022/09/08 05:04:03;;;;;;;41.80;17.50;;;;;;;12.27;52.80;98930.55;105799;1277;107798;-64
2022/09/08 05:06:33;;;;;;;35.90;17.90;;;;;;;12.29;53.04;98932.45;105960;1276;99460;-64
2022/09/08 05:09:04;;;;;;;39.60;17.50;;;;;;;12.32;52.97;98935.42;105918;1277;99223;-64
2022/09/08 05:11:34;;;;;;;43.70;18.40;;;;;;;12.35;52.96;98937.16;105825;1277;112743;-64
2022/09/08 05:14:04;;;;;;;35.90;17.70;;;;;;;12.38;53.03;98938.17;105773;1277;100377;-64
2022/09/08 05:16:33;;;;;;;38.00;17.80;;;;;;;12.41;53.03;98939.70;105815;1279;108352;-64
2022/09/08 05:19:06;;;;;;;36.20;17.90;;;;;;;12.44;53.10;98938.05;105659;1280;99424;-67
2022/09/08 05:21:35;;;;;;;35.80;17.30;;;;;;;12.46;53.17;98939.92;105789;1277;99342;-66
2022/09/08 05:24:04;;;;;;;37.20;18.80;;;;;;;12.50;53.15;98942.30;105868;1276;112806;-65
2022/09/08 05:26:34;;;;;;;36.80;17.50;;;;;;;12.53;53.17;98946.19;105767;1277;100717;-68
2022/09/08 05:29:04;;;;;;;36.50;17.70;;;;;;;12.55;53.29;98946.16;105933;1276;108354;-65
2022/09/08 05:31:34;;;;;;;37.30;17.60;;;;;;;12.58;53.30;98942.54;105858;1277;99379;-65
2022/09/08 05:34:01;;;;;;;38.00;18.70;;;;;;;12.61;53.25;98934.98;105913;1276;99224;-65
2022/09/08 05:36:35;;;;;;;36.20;18.50;;;;;;;12.64;53.31;98934.91;105905;1277;113571;-65
2022/09/08 05:39:06;;;;;;;38.20;17.80;;;;;;;12.68;53.27;98934.60;105909;1276;97850;-65
2022/09/08 05:41:34;;;;;;;37.40;18.00;;;;;;;12.68;53.34;98930.48;105845;1276;108460;-66
2022/09/08 05:44:02;;;;;;;39.50;18.10;;;;;;;12.72;53.38;98930.92;105841;1276;96648;-65
2022/09/08 05:46:31;;;;;;;37.40;18.60;;;;;;;12.74;53.29;98933.21;105886;1276;99245;-66
2022/09/08 05:49:03;;;;;;;37.50;18.70;;;;;;;12.75;53.46;98934.19;105928;1276;113545;-65
2022/09/08 05:51:33;;;;;;;40.10;18.90;;;;;;;12.77;53.37;98934.88;105860;1276;99262;-64
2022/09/08 05:54:02;;;;;;;39.20;19.10;;;;;;;12.79;53.39;98934.20;105829;1277;109042;-65
2022/09/08 05:56:29;;;;;;;39.60;18.70;;;;;;;12.84;53.46;98930.65;105896;1276;99332;-65
2022/09/08 05:58:59;;;;;;;35.80;17.20;;;;;;;12.86;53.51;98926.34;105945;1277;99329;-65
2022/09/08 06:01:33;;;;;;;98.30;60.50;;;;;;;12.89;53.54;98927.70;105942;1277;114072;-64
2022/09/08 06:04:01;;;;;;;50.50;28.70;;;;;;;12.92;53.68;98927.08;105871;1277;99362;-64
2022/09/08 06:06:33;;;;;;;43.10;20.20;;;;;;;12.96;53.67;98923.58;105823;1277;108436;-66
2022/09/08 06:09:02;;;;;;;36.70;18.70;;;;;;;13.01;53.69;98921.55;105629;1279;99214;-64
2022/09/08 06:11:34;;;;;;;36.50;17.60;;;;;;;13.05;53.63;98917.80;105846;1277;99364;-65
2022/09/08 06:14:05;;;;;;;39.60;18.00;;;;;;;13.10;53.74;98913.29;105879;1277;112818;-65
2022/09/08 06:16:34;;;;;;;41.50;18.00;;;;;;;13.16;53.79;98914.07;105938;1277;98979;-64
2022/09/08 06:19:03;;;;;;;38.10;17.70;;;;;;;13.21;53.85;98913.42;105827;1277;108551;-65
2022/09/08 06:21:33;;;;;;;38.00;18.20;;;;;;;13.26;53.87;98909.93;105724;1277;99300;-66
2022/09/08 06:24:07;;;;;;;33.80;17.80;;;;;;;13.33;53.91;98910.30;105772;1277;99215;-65
2022/09/08 06:27:06;;;;;;;43.40;20.50;;;;;;;13.38;54.01;98908.53;105711;1276;112768;-64
2022/09/08 06:29:43;;;;;;;38.10;17.40;;;;;;;13.45;54.09;98904.29;105810;1277;99386;-65
2022/09/08 06:32:30;;;;;;;40.50;18.60;;;;;;;13.52;53.90;98905.80;105784;1277;108084;-67
2022/09/08 06:35:10;;;;;;;35.10;17.60;;;;;;;13.59;53.98;98902.00;105749;1277;99346;-64
2022/09/08 06:38:00;;;;;;;40.30;18.10;;;;;;;13.66;53.86;98901.02;105784;1277;99234;-65
2022/09/08 06:40:35;;;;;;;35.30;17.70;;;;;;;13.72;54.11;98901.91;105758;1277;113473;-65
2022/09/08 06:43:27;;;;;;;36.80;17.70;;;;;;;13.79;54.13;98907.57;105922;1277;99118;-65
2022/09/08 06:46:01;;;;;;;35.10;17.50;;;;;;;13.88;54.22;98908.02;105949;1277;107755;-65
2022/09/08 06:48:35;;;;;;;39.70;18.10;;;;;;;13.95;54.28;98911.98;105946;1277;99203;-64
2022/09/08 06:51:43;;;;;;;35.90;17.40;;;;;;;14.05;54.31;98914.34;105859;1279;99351;-63
2022/09/08 06:54:44;;;;;;;37.80;17.50;;;;;;;14.15;54.32;98920.02;105451;1277;113417;-64
2022/09/08 06:57:37;;;;;;;35.50;17.60;;;;;;;14.26;54.37;98922.77;105828;1277;99369;-65
2022/09/08 07:00:34;;;;;;;39.10;17.80;;;;;;;14.37;54.42;98914.52;105862;1276;108417;-64
2022/09/08 07:03:31;;;;;;;39.60;19.10;;;;;;;14.46;54.36;98913.85;105979;1276;99337;-63
2022/09/08 07:06:10;;;;;;;45.30;24.90;;;;;;;14.57;54.39;98913.04;105897;1277;99449;-65
2022/09/08 07:08:37;;;;;;;47.50;25.90;;;;;;;14.66;54.50;98915.27;105889;1277;113813;-65
2022/09/08 07:11:14;;;;;;;42.50;21.80;;;;;;;14.75;54.40;98910.04;106023;1277;99218;-64
2022/09/08 07:13:55;;;;;;;41.90;18.90;;;;;;;14.86;54.49;98907.23;106004;1278;109217;-64
2022/09/08 07:16:37;;;;;;;34.80;18.80;;;;;;;14.97;54.54;98908.91;105996;1277;99837;-65
2022/09/08 07:19:32;;;;;;;38.00;18.50;;;;;;;15.09;54.64;98910.10;105942;1279;99439;-64
2022/09/08 07:22:28;;;;;;;38.40;18.70;;;;;;;15.26;54.57;98913.83;105985;1277;113368;-64
2022/09/08 07:25:10;;;;;;;36.20;17.40;;;;;;;16.24;53.61;98915.20;105884;1278;99258;-64
2022/09/08 07:27:40;;;;;;;44.70;19.60;;;;;;;17.62;52.85;98906.34;105855;1277;108078;-65
2022/09/08 07:30:15;;;;;;;42.10;18.80;;;;;;;18.88;52.79;98901.98;105903;1279;99353;-65
2022/09/08 07:32:53;;;;;;;38.80;18.50;;;;;;;20.13;52.59;98900.53;105826;1278;96642;-65
2022/09/08 07:36:10;;;;;;;36.60;18.10;;;;;;;21.49;52.62;98896.88;105897;1277;113489;-65
2022/09/08 07:38:56;;;;;;;38.40;18.80;;;;;;;22.82;52.43;98897.40;105958;1278;98149;-65
2022/09/08 07:41:34;;;;;;;36.40;21.00;;;;;;;23.94;51.96;98894.58;105875;1277;108389;-64
2022/09/08 07:44:13;;;;;;;38.40;20.80;;;;;;;24.98;51.74;98894.13;105868;1277;99294;-64
2022/09/08 07:47:05;;;;;;;38.40;19.40;;;;;;;25.99;51.47;98902.71;105898;1278;99340;-65
2022/09/08 07:49:35;;;;;;;35.90;19.50;;;;;;;26.87;51.15;98898.55;105867;1278;113452;-65
2022/09/08 07:52:26;;;;;;;34.60;19.50;;;;;;;27.63;51.17;98902.23;105887;1277;99491;-63
2022/09/08 07:55:00;;;;;;;36.20;19.40;;;;;;;28.64;50.64;98893.70;105866;1277;108343;-67
2022/09/08 07:57:57;;;;;;;45.40;18.90;;;;;;;29.42;50.49;98893.36;105907;1277;99246;-65
2022/09/08 08:01:06;;;;;;;32.00;17.80;;;;;;;30.18;50.07;98894.98;106040;1277;97945;-65
2022/09/08 08:03:56;;;;;;;34.10;19.70;;;;;;;31.08;49.76;98891.27;105780;1277;112798;-65
2022/09/08 08:07:04;;;;;;;33.00;21.70;;;;;;;31.68;49.39;98887.14;106037;1277;99712;-64
2022/09/08 08:10:10;;;;;;;32.10;18.90;;;;;;;32.35;48.71;98884.86;105475;1284;108862;-65
2022/09/08 08:13:14;;;;;;;35.50;18.70;;;;;;;32.96;48.39;98881.08;105911;1277;99542;-65
2022/09/08 08:16:00;;;;;;;30.90;18.10;;;;;;;33.62;47.95;98881.94;105940;1277;99275;-64
2022/09/08 08:18:41;;;;;;;31.00;19.00;;;;;;;34.11;47.63;98884.13;105944;1278;112394;-65
2022/09/08 08:21:18;;;;;;;31.70;18.80;;;;;;;34.43;46.96;98887.95;105927;1277;97256;-65
2022/09/08 08:23:50;;;;;;;28.00;17.90;;;;;;;34.55;46.68;98886.11;105891;1277;107630;-66
2022/09/08 08:26:49;;;;;;;28.60;17.10;;;;;;;34.82;46.26;98887.66;105848;1277;99239;-65
2022/09/08 08:29:45;;;;;;;27.70;17.20;;;;;;;35.14;45.80;98887.92;105770;1278;99216;-66
2022/09/08 08:32:40;;;;;;;33.10;17.10;;;;;;;35.60;45.36;98884.79;105888;1277;112064;-65
2022/09/08 08:35:26;;;;;;;30.90;17.30;;;;;;;35.99;44.86;98884.48;105898;1277;97941;-65
2022/09/08 08:37:56;;;;;;;25.90;16.10;;;;;;;36.31;44.30;98877.15;105884;1277;107747;-64
2022/09/08 08:40:53;;;;;;;30.70;17.90;;;;;;;36.38;43.58;98870.69;105859;1278;99260;-65
2022/09/08 08:43:30;;;;;;;26.80;17.60;;;;;;;36.46;43.05;98866.20;105968;1277;96625;-68
2022/09/08 08:46:17;;;;;;;27.30;17.80;;;;;;;36.49;42.67;98862.37;105875;1277;112805;-66
2022/09/08 08:49:02;;;;;;;31.20;17.60;;;;;;;36.68;42.16;98857.35;105876;1277;99716;-65
2022/09/08 08:51:57;;;;;;;28.50;18.00;;;;;;;36.90;41.71;98853.66;105868;1277;107726;-68
2022/09/08 08:54:43;;;;;;;26.50;16.20;;;;;;;37.15;40.96;98848.90;105887;1277;96669;-67
2022/09/08 08:57:44;;;;;;;26.30;15.70;;;;;;;37.23;40.41;98846.04;105760;1279;99314;-66
2022/09/08 09:00:21;;;;;;;30.70;16.60;;;;;;;37.31;39.88;98847.77;105985;1279;112689;-66
2022/09/08 09:03:46;;;;;;;25.70;15.80;;;;;;;37.58;39.79;98849.59;105965;1277;99296;-66
2022/09/08 09:06:27;;;;;;;28.90;16.30;;;;;;;37.72;39.14;98847.02;105902;1279;108385;-68
2022/09/08 09:09:24;;;;;;;27.20;16.20;;;;;;;37.71;39.01;98842.94;105874;1276;96600;-65
2022/09/08 09:12:14;;;;;;;24.90;15.10;;;;;;;37.80;38.47;98841.53;105845;1277;96625;-68
2022/09/08 09:15:19;;;;;;;26.40;15.20;;;;;;;37.86;37.95;98838.20;105825;1277;113392;-66
2022/09/08 09:18:49;;;;;;;25.10;14.90;;;;;;;38.14;37.54;98835.88;105846;1277;98482;-65
2022/09/08 09:21:39;;;;;;;25.10;15.30;;;;;;;38.38;36.97;98828.18;105910;1278;108392;-66
2022/09/08 09:24:25;;;;;;;28.60;15.10;;;;;;;38.32;36.42;98829.05;105938;1278;96637;-65
2022/09/08 09:26:56;;;;;;;26.90;14.80;;;;;;;38.17;36.19;98830.83;105961;1277;99296;-66
2022/09/08 09:29:26;;;;;;;;;;;;;;;38.34;36.03;98831.45;105943;1277;112770;-68
2022/09/08 09:32:14;;;;;;;24.10;13.30;;;;;;;38.35;35.72;98827.77;105986;1277;99757;-69
2022/09/08 09:35:02;;;;;;;24.10;13.40;;;;;;;38.29;35.29;98823.48;107218;1275;108541;-66
2022/09/08 09:38:13;;;;;;;23.30;12.80;;;;;;;38.38;34.84;98821.64;105962;1277;99355;-64
2022/09/08 09:41:09;;;;;;;24.70;13.20;;;;;;;38.23;34.71;98826.06;106048;1277;96633;-65
2022/09/08 09:44:03;;;;;;;26.40;13.20;;;;;;;38.16;34.39;98823.06;105951;1277;113538;-65
2022/09/08 09:46:54;;;;;;;22.60;13.20;;;;;;;38.20;34.23;98824.11;106008;1277;99356;-65
2022/09/08 09:49:39;;;;;;;25.70;13.20;;;;;;;37.60;33.94;98818.42;105799;1277;107812;-65
2022/09/08 09:52:46;;;;;;;24.90;14.10;;;;;;;37.06;33.61;98815.66;106099;1274;99310;-63
2022/09/08 09:56:00;;;;;;;24.00;13.20;;;;;;;36.39;33.59;98817.24;105930;1277;99222;-64
2022/09/08 09:58:53;;;;;;;24.40;13.80;;;;;;;35.97;33.32;98819.39;105982;1275;114137;-65
2022/09/08 10:01:41;;;;;;;26.10;13.20;;;;;;;35.64;33.11;98813.09;106050;1277;99730;-65
2022/09/08 10:04:44;;;;;;;27.10;13.60;;;;;;;35.18;32.94;98811.58;106002;1275;108373;-65
2022/09/08 10:07:47;;;;;;;24.60;13.10;;;;;;;34.80;32.83;98807.55;105999;1277;96682;-65
2022/09/08 10:10:43;;;;;;;24.40;12.80;;;;;;;34.16;32.29;98804.48;106020;1277;99269;-63
2022/09/08 10:13:25;;;;;;;24.30;12.60;;;;;;;33.57;32.46;98800.23;105972;1276;112755;-65
2022/09/08 10:16:12;;;;;;;22.70;13.20;;;;;;;33.19;32.08;98796.30;106044;1277;99681;-64
2022/09/08 10:19:05;;;;;;;28.00;13.10;;;;;;;32.84;32.42;98791.48;106002;1276;108414;-65
2022/09/08 10:22:11;;;;;;;24.80;12.20;;;;;;;32.26;31.98;98792.36;105792;1278;99246;-66
2022/09/08 10:24:53;;;;;;;23.80;12.10;;;;;;;31.79;32.04;98795.19;106142;1275;99207;-65
2022/09/08 10:27:47;;;;;;;22.00;11.70;;;;;;;31.39;32.20;98792.84;106159;1277;111892;-65
2022/09/08 10:30:21;;;;;;;23.50;11.40;;;;;;;30.98;32.14;98792.15;106024;1277;97088;-67
2022/09/08 10:33:25;;;;;;;26.90;12.00;;;;;;;30.72;32.30;98788.59;105985;1277;108336;-66
2022/09/08 10:36:08;;;;;;;21.30;11.50;;;;;;;30.46;32.35;98782.66;105888;1277;100376;-64
2022/09/08 10:38:44;;;;;;;23.20;11.20;;;;;;;30.27;32.29;98776.38;105968;1277;99377;-64
2022/09/08 10:41:31;;;;;;;24.50;11.30;;;;;;;30.07;32.33;98776.20;105991;1277;111940;-63
2022/09/08 10:44:14;;;;;;;22.40;11.50;;;;;;;29.84;32.49;98778.40;106001;1277;99292;-65
2022/09/08 10:47:25;;;;;;;22.30;10.90;;;;;;;29.73;32.72;98780.33;105980;1277;107968;-66
2022/09/08 10:49:55;;;;;;;29.20;13.40;;;;;;;29.67;32.67;98780.98;105986;1277;96670;-66
2022/09/08 10:52:32;;;;;;;27.70;12.30;;;;;;;29.65;32.83;98782.91;106017;1276;99192;-64
2022/09/08 10:55:27;;;;;;;24.20;11.20;;;;;;;29.64;32.90;98781.69;105888;1277;112848;-65
2022/09/08 10:58:09;;;;;;;26.30;11.50;;;;;;;29.68;32.98;98779.08;105928;1276;99562;-66
2022/09/08 11:01:16;;;;;;;27.90;11.50;;;;;;;29.67;32.99;98770.52;106035;1276;108365;-65
2022/09/08 11:04:08;;;;;;;22.50;10.60;;;;;;;29.64;33.08;98763.37;106175;1275;99161;-66
2022/09/08 11:06:35;;;;;;;25.20;11.30;;;;;;;29.55;32.99;98764.89;106152;1277;99214;-64
2022/09/08 11:09:19;;;;;;;23.30;11.70;;;;;;;29.50;33.31;98764.21;106103;1277;113460;-66
2022/09/08 11:12:12;;;;;;;23.20;11.40;;;;;;;29.49;33.29;98762.42;106164;1277;99367;-65
2022/09/08 11:14:58;;;;;;;23.10;11.10;;;;;;;29.46;33.52;98757.72;106105;1277;108356;-64
2022/09/08 11:17:30;;;;;;;24.30;11.20;;;;;;;29.39;33.36;98754.17;106107;1277;99432;-65
2022/09/08 11:20:11;;;;;;;21.50;11.40;;;;;;;29.34;33.45;98747.52;106175;1277;98334;-65
2022/09/08 11:23:11;;;;;;;21.20;10.90;;;;;;;29.32;33.61;98746.66;106000;1277;112813;-64
2022/09/08 11:25:44;;;;;;;21.60;10.60;;;;;;;29.30;33.70;98747.61;105982;1277;98929;-64
2022/09/08 11:28:22;;;;;;;25.30;11.40;;;;;;;29.29;33.76;98744.58;106108;1277;108429;-64
2022/09/08 11:31:15;;;;;;;21.70;11.00;;;;;;;29.29;33.96;98738.23;105965;1277;99322;-64
2022/09/08 11:34:02;;;;;;;;;;;;;;;29.28;33.88;98735.30;106014;1275;99261;-65
2022/09/08 11:37:07;;;;;;;23.30;11.30;;;;;;;29.21;34.11;98734.83;106000;1277;113493;-63
2022/09/08 11:40:06;;;;;;;30.80;15.80;;;;;;;29.07;34.15;98736.20;106093;1276;99227;-66
2022/09/08 11:43:00;;;;;;;29.60;18.30;;;;;;;28.93;34.22;98730.23;106044;1277;108354;-65
2022/09/08 11:45:57;;;;;;;29.50;15.20;;;;;;;28.82;34.39;98732.75;105866;1277;99313;-65
2022/09/08 11:48:49;;;;;;;25.50;11.80;;;;;;;28.73;34.42;98730.30;105862;1277;99346;-66
2022/09/08 11:52:06;;;;;;;24.80;12.00;;;;;;;28.67;34.61;98722.81;105866;1278;113421;-64
2022/09/08 11:55:19;;;;;;;23.30;10.50;;;;;;;28.63;34.55;98719.02;105923;1277;99306;-65
2022/09/08 11:58:07;;;;;;;25.70;11.10;;;;;;;28.63;34.51;98719.66;105895;1278;108513;-65
2022/09/08 12:00:57;;;;;;;22.30;10.60;;;;;;;28.65;34.88;98713.80;105868;1278;96653;-66
2022/09/08 12:03:56;;;;;;;24.80;12.30;;;;;;;28.66;34.91;98712.18;105877;1277;99118;-64
2022/09/08 12:06:42;;;;;;;26.20;14.30;;;;;;;28.68;34.87;98711.90;105874;1278;113750;-66
2022/09/08 12:09:32;;;;;;;26.40;12.20;;;;;;;28.65;35.05;98711.94;105912;1278;99517;-65